Time;durP1;ratioP1;P1;durP2;ratioP2;P2;SDS_P1;SDS_P2;PMS_P1;PMS_P2;Temp;Humidity;BMP_temperature;BMP_pressure;BME280_temperature;BME280_humidity;BME280_pressure;Samples;Min_cycle;Max_cycle;Signal;HPM_P1;HPM_P2
2024/03/09 00:00:09;;;;;;;17.80;12.03;;;4.90;1.30;;;;;;5071520;28;20895;-69
2024/03/09 00:02:36;;;;;;;19.70;12.10;;;5.00;1.00;;;;;;5071771;28;20428;-71
2024/03/09 00:05:05;;;;;;;23.60;13.60;;;4.90;1.40;;;;;;5071438;28;20439;-69
2024/03/09 00:07:31;;;;;;;18.10;12.03;;;4.90;1.80;;;;;;5071591;28;20447;-69
2024/03/09 00:09:57;;;;;;;20.37;12.40;;;4.90;2.00;;;;;;5074058;28;20409;-69
2024/03/09 00:12:22;;;;;;;22.37;13.13;;;4.90;1.20;;;;;;5091588;28;20193;-68
2024/03/09 00:14:48;;;;;;;20.20;12.60;;;4.90;1.40;;;;;;5091793;28;20667;-68
2024/03/09 00:17:16;;;;;;;18.00;11.30;;;4.90;2.00;;;;;;5091650;28;20180;-68
2024/03/09 00:19:42;;;;;;;19.53;12.57;;;4.80;1.90;;;;;;5091622;28;20509;-68
2024/03/09 00:22:09;;;;;;;20.50;12.50;;;4.80;2.10;;;;;;5091613;28;20949;-67
2024/03/09 00:24:34;;;;;;;20.97;14.03;;;4.80;2.30;;;;;;5081801;28;20898;-68
2024/03/09 00:27:00;;;;;;;20.83;12.23;;;4.80;2.60;;;;;;5071349;28;20416;-68
2024/03/09 00:29:25;;;;;;;22.07;12.87;;;4.80;2.30;;;;;;5071392;28;20741;-69
2024/03/09 00:31:52;;;;;;;18.13;11.83;;;4.80;2.60;;;;;;5071491;28;20285;-68
2024/03/09 00:34:19;;;;;;;19.90;11.50;;;4.80;2.00;;;;;;5074245;28;20166;-68
2024/03/09 00:36:46;;;;;;;19.47;13.83;;;4.80;2.20;;;;;;5091415;28;20418;-68
2024/03/09 00:39:12;;;;;;;17.37;12.13;;;4.80;2.60;;;;;;5097897;28;20957;-69
2024/03/09 00:41:42;;;;;;;20.77;14.20;;;4.80;2.60;;;;;;5097739;28;20436;-68
2024/03/09 00:44:09;;;;;;;17.77;13.30;;;4.80;2.60;;;;;;5096847;28;20172;-69
2024/03/09 00:46:36;;;;;;;16.80;12.30;;;4.70;2.60;;;;;;5095334;28;20404;-67
2024/03/09 00:49:02;;;;;;;22.40;12.80;;;4.80;2.60;;;;;;5093927;28;20442;-68
2024/03/09 00:51:30;;;;;;;22.87;13.80;;;4.80;2.60;;;;;;5075002;28;20455;-67
2024/03/09 00:53:55;;;;;;;19.50;13.03;;;4.80;2.70;;;;;;5075444;28;20494;-68
2024/03/09 00:56:21;;;;;;;19.43;13.47;;;4.80;2.40;;;;;;5075013;28;20991;-67
2024/03/09 00:58:47;;;;;;;19.70;11.70;;;4.80;2.00;;;;;;5073698;28;20727;-66
2024/03/09 01:01:12;;;;;;;20.20;14.07;;;4.90;1.50;;;;;;5074722;28;20803;-68
2024/03/09 01:03:38;;;;;;;21.90;13.87;;;4.90;1.30;;;;;;5074763;28;20209;-67
2024/03/09 01:06:05;;;;;;;16.60;11.33;;;4.90;1.40;;;;;;5082640;28;20619;-67
2024/03/09 01:08:31;;;;;;;18.23;13.33;;;4.90;1.70;;;;;;5075644;28;20416;-68
2024/03/09 01:10:57;;;;;;;23.77;15.03;;;4.90;1.70;;;;;;5074968;28;20438;-68
2024/03/09 01:13:22;;;;;;;19.73;12.57;;;4.90;1.80;;;;;;5074520;28;20416;-68
2024/03/09 01:15:51;;;;;;;20.90;13.57;;;4.90;1.90;;;;;;5074554;28;20408;-69
2024/03/09 01:18:17;;;;;;;20.83;12.90;;;4.90;2.10;;;;;;5081005;28;20283;-67
2024/03/09 01:20:43;;;;;;;19.37;13.50;;;4.90;2.10;;;;;;5094809;28;20479;-68
2024/03/09 01:23:09;;;;;;;19.97;13.43;;;4.90;1.80;;;;;;5094979;28;20501;-69
2024/03/09 01:25:35;;;;;;;22.03;14.10;;;5.00;1.70;;;;;;5095267;28;20652;-69
2024/03/09 01:28:00;;;;;;;24.97;15.20;;;4.90;2.10;;;;;;5094719;28;20434;-69
2024/03/09 01:30:26;;;;;;;19.00;12.20;;;4.90;1.60;;;;;;5094546;28;20181;-68
2024/03/09 01:32:51;;;;;;;19.93;12.97;;;5.00;1.80;;;;;;5089195;28;20216;-67
2024/03/09 01:35:17;;;;;;;23.57;13.60;;;5.00;1.90;;;;;;5073948;28;20182;-66
2024/03/09 01:37:43;;;;;;;19.60;14.57;;;5.00;2.20;;;;;;5073986;28;20560;-66
2024/03/09 01:40:10;;;;;;;22.30;14.83;;;5.00;2.50;;;;;;5074037;28;20419;-66
2024/03/09 01:42:36;;;;;;;22.20;14.07;;;5.00;1.70;;;;;;5073886;28;20194;-67
2024/03/09 01:45:04;;;;;;;19.30;12.87;;;5.00;1.50;;;;;;5073664;28;20404;-66
2024/03/09 01:47:30;;;;;;;21.87;15.00;;;5.00;1.60;;;;;;5085511;28;20274;-67
2024/03/09 01:49:57;;;;;;;24.53;14.43;;;5.00;1.90;;;;;;5094038;28;20443;-67
2024/03/09 01:52:25;;;;;;;19.23;13.53;;;5.00;2.10;;;;;;5093741;28;20201;-67
2024/03/09 01:54:54;;;;;;;20.03;15.27;;;4.90;2.00;;;;;;5093770;28;20419;-67
2024/03/09 01:57:20;;;;;;;22.37;13.70;;;4.90;2.30;;;;;;5093819;28;20416;-66
2024/03/09 01:59:52;;;;;;;19.77;13.13;;;4.90;2.70;;;;;;5087803;28;20468;-67
2024/03/09 02:02:20;;;;;;;20.83;12.87;;;4.90;2.70;;;;;;5073554;28;20439;-67
2024/03/09 02:04:46;;;;;;;20.20;13.30;;;4.90;2.70;;;;;;5073186;28;20504;-67
2024/03/09 02:07:16;;;;;;;25.13;15.97;;;4.90;3.40;;;;;;5073407;28;20404;-67
2024/03/09 02:09:42;;;;;;;21.27;14.30;;;4.90;3.30;;;;;;5073420;28;20419;-67
2024/03/09 02:12:10;;;;;;;24.87;15.00;;;4.90;2.90;;;;;;5073349;28;20436;-67
2024/03/09 02:14:36;;;;;;;21.23;13.80;;;4.90;2.70;;;;;;5086769;28;20419;-67
2024/03/09 02:17:07;;;;;;;21.40;13.70;;;4.90;2.70;;;;;;5093477;28;20411;-67
2024/03/09 02:19:35;;;;;;;23.03;13.43;;;5.00;2.80;;;;;;5093527;28;20411;-66
2024/03/09 02:22:00;;;;;;;17.90;12.73;;;5.10;2.80;;;;;;5093453;28;20435;-66
2024/03/09 02:24:34;;;;;;;19.07;13.10;;;5.10;2.80;;;;;;5081600;28;20431;-67
2024/03/09 02:26:59;;;;;;;22.93;15.77;;;5.10;2.80;;;;;;5079556;28;20579;-67
2024/03/09 02:29:25;;;;;;;20.90;12.73;;;5.20;2.10;;;;;;5073046;28;20461;-66
2024/03/09 02:31:55;;;;;;;24.73;14.90;;;5.20;1.50;;;;;;5072769;28;20706;-66
2024/03/09 02:34:21;;;;;;;21.90;14.30;;;5.20;2.00;;;;;;5072724;28;20188;-67
2024/03/09 02:36:46;;;;;;;23.60;13.90;;;5.20;1.90;;;;;;5073117;28;20495;-67
2024/03/09 02:39:12;;;;;;;24.07;14.93;;;5.20;1.50;;;;;;5092178;28;20598;-67
2024/03/09 02:41:37;;;;;;;22.40;13.67;;;5.30;1.50;;;;;;5093052;28;20376;-68
2024/03/09 02:44:03;;;;;;;19.80;12.57;;;5.30;1.20;;;;;;5093260;28;20514;-70
2024/03/09 02:46:29;;;;;;;15.60;13.80;;;5.40;1.30;;;;;;5093081;28;20176;-71
2024/03/09 02:48:55;;;;;;;21.80;15.60;;;5.40;1.30;;;;;;5093425;28;20264;-69
2024/03/09 02:51:22;;;;;;;20.77;14.37;;;5.40;1.00;;;;;;5093090;28;20973;-68
2024/03/09 02:53:50;;;;;;;20.83;14.70;;;5.40;1.50;;;;;;5074822;28;20247;-69
2024/03/09 02:56:18;;;;;;;27.50;17.80;;;5.40;1.00;;;;;;5072508;28;20420;-68
2024/03/09 02:58:44;;;;;;;26.73;14.90;;;5.40;1.10;;;;;;5071175;28;20493;-69
2024/03/09 03:01:11;;;;;;;24.20;12.93;;;5.40;1.10;;;;;;5076093;28;20431;-69
2024/03/09 03:03:55;;;;;;;18.30;13.53;;;5.30;1.50;;;;;;5091499;28;20418;-69
2024/03/09 03:06:21;;;;;;;23.47;14.00;;;5.30;1.70;;;;;;5092615;28;20443;-69
2024/03/09 03:08:48;;;;;;;21.03;12.60;;;5.20;2.20;;;;;;5092816;28;20429;-68
2024/03/09 03:11:16;;;;;;;22.33;13.00;;;5.20;1.90;;;;;;5092754;28;20944;-69
2024/03/09 03:13:46;;;;;;;21.37;14.27;;;5.10;2.30;;;;;;5092632;28;20407;-68
2024/03/09 03:16:21;;;;;;;25.23;14.90;;;5.00;2.80;;;;;;5078291;28;20420;-69
2024/03/09 03:18:50;;;;;;;18.97;12.43;;;5.00;2.80;;;;;;5072345;28;20500;-68
2024/03/09 03:21:16;;;;;;;18.43;13.20;;;5.00;2.80;;;;;;5072339;28;20506;-68
2024/03/09 03:23:42;;;;;;;16.40;11.70;;;5.00;2.80;;;;;;5072525;28;20496;-68
2024/03/09 03:26:13;;;;;;;19.33;12.37;;;5.00;2.80;;;;;;5072125;28;20173;-68
2024/03/09 03:28:39;;;;;;;21.27;14.07;;;5.00;2.80;;;;;;5072125;28;20436;-68
2024/03/09 03:31:11;;;;;;;14.67;11.50;;;4.90;3.20;;;;;;5087067;28;20420;-68
2024/03/09 03:33:41;;;;;;;22.53;12.20;;;4.90;4.00;;;;;;5092256;28;20922;-68
2024/03/09 03:36:08;;;;;;;20.50;14.50;;;4.90;4.00;;;;;;5092037;28;20419;-69
2024/03/09 03:38:36;;;;;;;18.37;12.30;;;4.90;3.70;;;;;;5092094;28;20565;-68
2024/03/09 03:41:06;;;;;;;21.67;14.40;;;4.90;4.10;;;;;;5092264;28;20889;-67
2024/03/09 03:43:33;;;;;;;25.30;14.40;;;5.00;3.80;;;;;;5088256;28;20515;-68
2024/03/09 03:46:00;;;;;;;24.47;13.53;;;5.00;3.70;;;;;;5071872;28;20503;-68
2024/03/09 03:48:25;;;;;;;24.40;13.87;;;5.00;3.80;;;;;;5072016;28;20416;-67
2024/03/09 03:50:51;;;;;;;18.47;12.90;;;4.90;4.90;;;;;;5071783;28;20843;-67
2024/03/09 03:53:16;;;;;;;21.10;12.20;;;4.90;5.00;;;;;;5071971;28;20177;-66
2024/03/09 03:55:42;;;;;;;26.47;15.83;;;5.00;5.00;;;;;;5091835;28;20189;-67
2024/03/09 03:58:08;;;;;;;20.37;14.67;;;5.00;5.00;;;;;;5092010;28;20553;-68
2024/03/09 04:00:34;;;;;;;22.37;14.70;;;4.90;6.10;;;;;;5091826;28;20177;-67
2024/03/09 04:02:59;;;;;;;21.10;13.70;;;4.90;6.40;;;;;;5090781;28;20390;-68
2024/03/09 04:05:29;;;;;;;21.37;14.10;;;4.90;7.20;;;;;;5091761;28;20173;-68
2024/03/09 04:07:56;;;;;;;21.00;14.90;;;4.80;7.10;;;;;;5083335;28;20180;-68
2024/03/09 04:10:22;;;;;;;23.30;15.00;;;4.90;7.20;;;;;;5075013;28;20419;-67
2024/03/09 04:12:47;;;;;;;22.23;13.93;;;4.80;7.70;;;;;;5075761;28;20442;-67
2024/03/09 04:15:13;;;;;;;24.20;14.70;;;4.90;7.20;;;;;;5075681;28;20174;-67
2024/03/09 04:17:40;;;;;;;21.47;14.33;;;5.00;7.10;;;;;;5075685;28;20209;-68
2024/03/09 04:20:06;;;;;;;22.17;13.97;;;4.90;6.80;;;;;;5075766;28;20439;-67
2024/03/09 04:22:32;;;;;;;22.77;15.07;;;5.00;7.00;;;;;;5082462;28;20532;-66
2024/03/09 04:25:03;;;;;;;23.60;15.20;;;5.00;6.20;;;;;;5095694;28;20443;-66
2024/03/09 04:27:31;;;;;;;19.03;13.60;;;4.90;6.40;;;;;;5095768;28;20506;-67
2024/03/09 04:29:57;;;;;;;24.77;14.20;;;4.90;6.80;;;;;;5094464;28;20772;-67
2024/03/09 04:32:27;;;;;;;23.37;14.13;;;5.00;6.60;;;;;;5095579;28;20552;-67
2024/03/09 04:34:53;;;;;;;24.07;15.07;;;5.00;6.60;;;;;;5095349;28;20445;-67
2024/03/09 04:37:25;;;;;;;22.70;13.63;;;5.00;7.00;;;;;;5080318;28;20443;-67
2024/03/09 04:39:58;;;;;;;20.90;12.67;;;4.90;7.20;;;;;;5075289;28;20408;-67
2024/03/09 04:42:25;;;;;;;22.93;14.43;;;5.00;7.40;;;;;;5075197;28;20431;-67
2024/03/09 04:44:53;;;;;;;22.80;14.50;;;4.90;7.60;;;;;;5075411;28;20452;-67
2024/03/09 04:47:19;;;;;;;20.30;15.43;;;4.80;7.60;;;;;;5075098;28;20825;-67
2024/03/09 04:49:48;;;;;;;18.30;12.53;;;4.80;8.10;;;;;;5075079;28;20805;-67
2024/03/09 04:52:14;;;;;;;21.20;14.10;;;4.80;8.10;;;;;;5091307;28;20502;-67
2024/03/09 04:54:43;;;;;;;22.50;14.80;;;4.70;8.40;;;;;;5093706;28;20446;-68
2024/03/09 04:57:24;;;;;;;24.17;14.63;;;4.80;7.80;;;;;;5095482;28;20615;-68
2024/03/09 04:59:50;;;;;;;22.90;14.60;;;4.80;7.10;;;;;;5095687;28;20410;-67
2024/03/09 05:02:16;;;;;;;24.87;14.73;;;4.70;7.50;;;;;;5106824;28;20438;-67
2024/03/09 05:04:42;;;;;;;21.37;14.83;;;4.70;7.40;;;;;;5095528;28;20410;-68
2024/03/09 05:07:09;;;;;;;22.00;13.60;;;4.60;7.60;;;;;;5091973;28;20422;-68
2024/03/09 05:09:37;;;;;;;23.30;15.80;;;4.60;7.60;;;;;;5091630;28;20185;-68
2024/03/09 05:12:03;;;;;;;19.90;12.13;;;4.50;8.20;;;;;;5075457;28;20435;-68
2024/03/09 05:14:30;;;;;;;21.13;13.80;;;4.60;8.30;;;;;;5074801;28;20514;-68
2024/03/09 05:16:56;;;;;;;21.77;13.33;;;4.50;8.60;;;;;;5077188;28;20419;-68
2024/03/09 05:19:22;;;;;;;22.27;14.50;;;4.50;8.60;;;;;;5094544;28;20454;-68
2024/03/09 05:21:48;;;;;;;24.87;13.40;;;4.50;9.20;;;;;;5094301;28;20511;-68
2024/03/09 05:24:15;;;;;;;22.93;15.60;;;4.40;8.00;;;;;;5091167;28;20762;-68
2024/03/09 05:26:42;;;;;;;20.77;13.00;;;4.40;8.70;;;;;;5074623;28;20758;-68
2024/03/09 05:29:11;;;;;;;21.70;12.70;;;4.20;9.50;;;;;;5074404;28;20506;-68
2024/03/09 05:31:37;;;;;;;20.55;13.80;;;4.10;9.40;;;;;;5073172;28;20996;-68
2024/03/09 05:34:04;;;;;;;21.17;13.97;;;4.00;10.70;;;;;;5075581;28;20197;-68
2024/03/09 05:36:29;;;;;;;20.40;12.87;;;3.90;10.90;;;;;;5073985;28;20429;-68
2024/03/09 05:38:55;;;;;;;19.97;13.33;;;3.70;12.50;;;;;;5074544;28;20469;-68
2024/03/09 05:41:21;;;;;;;21.40;12.97;;;3.70;13.00;;;;;;5074332;28;20434;-68
2024/03/09 05:43:47;;;;;;;20.47;13.70;;;3.60;14.50;;;;;;5074024;28;20225;-67
2024/03/09 05:46:16;;;;;;;24.38;16.17;;;3.60;15.10;;;;;;5074041;28;20173;-68
2024/03/09 05:48:45;;;;;;;18.40;12.00;;;3.60;14.80;;;;;;5087309;28;20182;-68
2024/03/09 05:51:11;;;;;;;21.42;12.18;;;3.50;15.00;;;;;;5094326;28;20283;-67
2024/03/09 05:53:43;;;;;;;17.70;11.85;;;3.50;15.40;;;;;;5094072;28;20231;-67
2024/03/09 05:56:12;;;;;;;21.25;11.57;;;3.40;16.00;;;;;;5094171;28;20176;-68
2024/03/09 05:58:41;;;;;;;18.08;13.07;;;3.40;15.40;;;;;;5092906;28;20234;-67
2024/03/09 06:01:06;;;;;;;19.92;14.38;;;3.30;16.40;;;;;;5093657;28;20184;-67
2024/03/09 06:03:32;;;;;;;20.93;13.00;;;3.30;16.80;;;;;;5094351;28;20566;-68
2024/03/09 06:05:58;;;;;;;24.37;12.20;;;3.20;18.30;;;;;;5093897;28;20171;-68
2024/03/09 06:08:24;;;;;;;22.17;12.90;;;3.10;19.00;;;;;;5094164;28;20185;-67
2024/03/09 06:10:49;;;;;;;23.63;12.00;;;3.10;19.90;;;;;;5092537;28;20266;-68
2024/03/09 06:13:17;;;;;;;20.33;12.30;;;3.10;19.60;;;;;;5093926;28;20251;-68
2024/03/09 06:15:45;;;;;;;22.60;13.85;;;3.10;20.70;;;;;;5093421;28;20285;-68
2024/03/09 06:18:11;;;;;;;20.95;13.07;;;3.10;21.90;;;;;;5094085;28;20195;-69
2024/03/09 06:20:38;;;;;;;20.95;12.25;;;3.00;21.60;;;;;;5093855;28;20172;-72
2024/03/09 06:23:04;;;;;;;20.65;14.23;;;3.00;21.90;;;;;;5093781;28;20220;-70
2024/03/09 06:25:30;;;;;;;19.20;13.10;;;3.00;22.20;;;;;;5093246;28;20653;-68
2024/03/09 06:27:58;;;;;;;20.83;12.88;;;2.90;22.30;;;;;;5093692;28;20261;-68
2024/03/09 06:30:24;;;;;;;23.23;13.85;;;2.90;22.90;;;;;;5093301;28;20209;-68
2024/03/09 06:32:50;;;;;;;21.33;13.60;;;2.90;23.40;;;;;;5092473;28;20253;-67
2024/03/09 06:35:20;;;;;;;21.85;14.68;;;2.80;23.60;;;;;;5093262;28;20183;-73
2024/03/09 06:38:05;;;;;;;24.33;15.35;;;2.80;23.50;;;;;;5093365;28;20197;-68
2024/03/09 06:40:33;;;;;;;26.05;15.65;;;2.90;23.70;;;;;;5093928;28;20181;-67
2024/03/09 06:43:03;;;;;;;25.08;15.40;;;3.00;24.40;;;;;;5093444;28;20287;-67
2024/03/09 06:45:29;;;;;;;22.38;14.68;;;3.00;23.60;;;;;;5092956;28;20192;-68
2024/03/09 06:47:58;;;;;;;25.33;14.50;;;3.10;23.10;;;;;;5093014;28;20174;-67
2024/03/09 06:50:27;;;;;;;23.17;15.50;;;3.10;23.10;;;;;;5093170;28;20506;-68
2024/03/09 06:52:52;;;;;;;26.10;15.90;;;3.20;23.10;;;;;;5092965;28;20568;-67
2024/03/09 06:55:24;;;;;;;26.70;16.07;;;3.30;19.90;;;;;;5092783;28;20180;-68
2024/03/09 06:57:53;;;;;;;24.15;16.92;;;3.40;20.40;;;;;;5092732;28;20204;-68
2024/03/09 07:00:20;;;;;;;26.17;15.60;;;3.50;19.50;;;;;;5092789;28;20180;-67
2024/03/09 07:02:46;;;;;;;26.77;15.82;;;3.50;19.50;;;;;;5092343;28;20205;-67
2024/03/09 07:05:12;;;;;;;25.17;14.45;;;3.50;20.20;;;;;;5092627;28;20167;-68
2024/03/09 07:07:38;;;;;;;26.60;14.90;;;3.50;20.80;;;;;;5092706;28;20180;-68
2024/03/09 07:10:11;;;;;;;23.67;15.65;;;3.60;20.20;;;;;;5092758;28;20195;-67
2024/03/09 07:12:39;;;;;;;24.53;16.93;;;3.80;19.40;;;;;;5093361;28;20195;-69
2024/03/09 07:15:15;;;;;;;28.07;17.37;;;3.80;19.00;;;;;;5091121;28;20426;-68
2024/03/09 07:17:45;;;;;;;21.70;13.40;;;3.90;17.20;;;;;;5093269;28;20453;-68
2024/03/09 07:20:13;;;;;;;23.58;14.85;;;4.00;17.50;;;;;;5087426;28;20543;-68
2024/03/09 07:22:40;;;;;;;18.37;13.23;;;4.00;17.20;;;;;;5072322;28;20246;-73
2024/03/09 07:25:10;;;;;;;19.25;14.00;;;4.10;16.10;;;;;;5072130;28;20414;-69
2024/03/09 07:27:37;;;;;;;19.93;13.10;;;4.20;15.40;;;;;;5072175;28;20242;-68
2024/03/09 07:30:04;;;;;;;21.87;14.13;;;4.40;13.80;;;;;;5072027;28;20414;-69
2024/03/09 07:32:31;;;;;;;24.00;15.33;;;4.40;12.80;;;;;;5096000;22;21108;-71
2024/03/09 07:34:56;;;;;;;22.67;15.83;;;4.50;12.50;;;;;;5070079;28;20510;-70
2024/03/09 07:37:22;;;;;;;22.33;13.10;;;4.60;13.10;;;;;;5071938;28;20836;-70
2024/03/09 07:39:48;;;;;;;20.23;13.27;;;4.70;12.10;;;;;;5072940;28;20174;-70
2024/03/09 07:42:15;;;;;;;21.00;13.53;;;4.80;11.50;;;;;;5071917;28;20279;-71
2024/03/09 07:44:41;;;;;;;27.30;17.17;;;4.90;10.80;;;;;;5071695;28;20169;-73
2024/03/09 07:47:08;;;;;;;22.37;13.63;;;5.00;9.60;;;;;;5071326;28;20430;-69
2024/03/09 07:49:33;;;;;;;21.53;14.60;;;5.20;8.70;;;;;;5071810;28;20240;-70
2024/03/09 07:51:59;;;;;;;24.27;13.50;;;5.30;7.40;;;;;;5071710;28;20554;-70
2024/03/09 07:54:25;;;;;;;18.30;12.03;;;5.40;7.00;;;;;;5070491;28;20180;-69
2024/03/09 07:56:50;;;;;;;15.10;12.23;;;5.50;6.40;;;;;;5078380;28;20223;-69
2024/03/09 07:59:17;;;;;;;20.43;13.90;;;5.60;5.60;;;;;;5073765;28;20210;-70
2024/03/09 08:01:42;;;;;;;21.03;12.77;;;5.80;6.10;;;;;;5071095;28;20201;-70
2024/03/09 08:04:08;;;;;;;22.40;12.67;;;5.80;3.30;;;;;;5072373;28;20404;-71
2024/03/09 08:06:37;;;;;;;19.50;13.03;;;6.00;4.10;;;;;;5070961;28;20174;-71
2024/03/09 08:09:03;;;;;;;19.80;12.13;;;6.10;3.50;;;;;;5072408;28;20211;-71
2024/03/09 08:11:30;;;;;;;20.50;12.00;;;6.10;2.40;;;;;;5071097;28;20426;-71
2024/03/09 08:13:55;;;;;;;19.37;12.60;;;6.20;1.30;;;;;;5072407;28;20466;-70
2024/03/09 08:16:21;;;;;;;23.97;15.00;;;6.30;1.00;;;;;;5072040;28;20413;-70
2024/03/09 08:18:47;;;;;;;18.10;11.43;;;6.40;1.00;;;;;;5072189;28;20229;-70
2024/03/09 08:21:13;;;;;;;18.23;13.93;;;6.60;1.00;;;;;;5072101;28;20171;-70
2024/03/09 08:23:42;;;;;;;19.53;11.70;;;7.10;1.00;;;;;;5071733;28;20410;-70
2024/03/09 08:26:08;;;;;;;20.70;13.40;;;7.50;1.00;;;;;;5071311;28;20245;-69
2024/03/09 08:28:34;;;;;;;16.53;12.40;;;7.50;1.00;;;;;;5071632;28;20490;-70
2024/03/09 08:31:01;;;;;;;20.43;13.00;;;7.80;1.00;;;;;;5070642;28;20944;-70
2024/03/09 08:33:26;;;;;;;19.63;11.73;;;8.20;1.00;;;;;;5072075;28;20295;-71
2024/03/09 08:35:58;;;;;;;13.27;11.20;;;8.10;1.00;;;;;;5072776;28;20477;-70
2024/03/09 08:38:24;;;;;;;18.10;11.47;;;8.20;1.00;;;;;;5071066;28;20207;-70
2024/03/09 08:40:52;;;;;;;15.40;10.10;;;8.70;1.00;;;;;;5064434;28;20480;-70
2024/03/09 08:43:18;;;;;;;16.60;13.00;;;8.80;1.00;;;;;;5065734;28;20530;-71
2024/03/09 08:45:43;;;;;;;16.90;12.73;;;8.60;1.00;;;;;;5052893;28;20974;-70
2024/03/09 08:48:12;;;;;;;16.73;11.77;;;8.50;1.00;;;;;;5052363;28;20173;-71
2024/03/09 08:50:38;;;;;;;15.37;12.23;;;8.40;1.00;;;;;;5052278;28;20188;-71
2024/03/09 08:53:04;;;;;;;15.70;10.90;;;8.50;1.00;;;;;;5052313;28;20443;-71
2024/03/09 08:55:31;;;;;;;15.70;12.30;;;8.60;1.00;;;;;;5072498;28;21238;-70
2024/03/09 08:58:00;;;;;;;15.33;11.23;;;8.60;1.00;;;;;;5074728;28;20458;-74
2024/03/09 09:00:26;;;;;;;18.20;10.80;;;8.70;1.00;;;;;;5073689;28;21034;-69
2024/03/09 09:02:56;;;;;;;14.20;9.97;;;8.70;1.00;;;;;;5073529;28;20452;-70
2024/03/09 09:05:21;;;;;;;16.97;10.63;;;8.80;1.00;;;;;;5070365;28;20448;-69
2024/03/09 09:07:47;;;;;;;15.03;10.90;;;8.90;1.00;;;;;;5057036;28;20424;-70
2024/03/09 09:10:21;;;;;;;15.87;10.20;;;9.10;1.00;;;;;;5054909;28;20194;-72
2024/03/09 09:12:49;;;;;;;17.27;11.53;;;9.20;1.00;;;;;;5054953;28;20257;-72
2024/03/09 09:15:19;;;;;;;13.20;9.80;;;9.30;1.00;;;;;;5054871;28;20408;-70
2024/03/09 09:17:44;;;;;;;15.77;9.83;;;9.40;1.00;;;;;;5056903;28;20455;-71
2024/03/09 09:20:11;;;;;;;14.10;9.10;;;9.60;1.00;;;;;;5076501;28;20417;-71
2024/03/09 09:22:47;;;;;;;15.47;10.60;;;9.70;1.00;;;;;;5079807;28;20281;-72
2024/03/09 09:25:13;;;;;;;14.43;9.63;;;9.90;1.00;;;;;;5074993;28;20414;-71
2024/03/09 09:27:40;;;;;;;14.93;10.13;;;10.00;1.00;;;;;;5075351;28;20985;-70
2024/03/09 09:30:06;;;;;;;13.07;8.73;;;10.10;1.00;;;;;;5069236;28;20179;-71
2024/03/09 09:32:32;;;;;;;10.20;8.07;;;10.20;1.00;;;;;;5054753;28;20457;-70
2024/03/09 09:34:58;;;;;;;15.50;9.47;;;10.40;1.00;;;;;;5054385;28;20417;-70
2024/03/09 09:37:23;;;;;;;13.23;10.30;;;10.50;1.00;;;;;;5054522;28;20174;-71
2024/03/09 09:39:49;;;;;;;12.20;9.40;;;10.70;1.00;;;;;;5065377;28;20645;-72
2024/03/09 09:42:18;;;;;;;14.80;10.97;;;10.90;1.00;;;;;;5071666;28;20510;-71
2024/03/09 09:44:44;;;;;;;17.37;10.67;;;10.90;1.00;;;;;;5060999;28;20499;-72
2024/03/09 09:47:11;;;;;;;12.40;8.93;;;11.10;1.00;;;;;;5065447;28;20420;-71
2024/03/09 09:49:38;;;;;;;12.03;7.60;;;11.20;1.00;;;;;;5051872;28;20986;-71
2024/03/09 09:52:04;;;;;;;10.83;8.43;;;11.40;1.00;;;;;;5059551;28;20444;-71
2024/03/09 09:54:32;;;;;;;9.40;6.27;;;11.60;1.00;;;;;;5063627;28;20422;-71
2024/03/09 09:57:00;;;;;;;9.00;7.80;;;11.80;1.00;;;;;;5054335;28;20437;-71
2024/03/09 09:59:26;;;;;;;9.43;7.20;;;12.10;1.00;;;;;;5069700;28;20463;-72
2024/03/09 10:01:54;;;;;;;16.40;6.73;;;12.20;1.00;;;;;;5064657;28;20455;-72
2024/03/09 10:04:23;;;;;;;9.20;6.97;;;12.40;1.00;;;;;;5065397;28;20200;-71
2024/03/09 10:06:51;;;;;;;6.23;5.20;;;12.50;1.00;;;;;;5059645;28;20483;-72
2024/03/09 10:09:30;;;;;;;8.00;5.53;;;12.70;1.00;;;;;;5060320;28;20978;-71
2024/03/09 10:11:56;;;;;;;8.57;6.40;;;12.90;1.00;;;;;;5069009;28;20439;-72
2024/03/09 10:14:28;;;;;;;8.00;6.03;;;12.90;1.00;;;;;;5064623;28;20440;-72
2024/03/09 10:16:56;;;;;;;9.90;5.00;;;13.10;1.00;;;;;;5068588;28;20182;-72
2024/03/09 10:19:22;;;;;;;4.60;4.20;;;13.30;1.00;;;;;;5065771;28;20474;-71
2024/03/09 10:21:51;;;;;;;5.60;5.00;;;13.50;1.00;;;;;;5057938;28;20457;-71
2024/03/09 10:24:18;;;;;;;5.93;4.77;;;13.60;1.00;;;;;;5064453;28;20241;-72
2024/03/09 10:26:45;;;;;;;6.30;5.10;;;13.70;1.00;;;;;;5071652;28;20464;-72
2024/03/09 10:29:13;;;;;;;5.40;4.53;;;13.90;1.00;;;;;;5057413;28;20440;-71
2024/03/09 10:31:43;;;;;;;8.13;5.07;;;13.90;1.00;;;;;;5065409;28;20466;-70
2024/03/09 10:34:10;;;;;;;5.73;3.90;;;13.90;1.00;;;;;;5064094;28;20416;-71
2024/03/09 10:36:37;;;;;;;4.47;4.07;;;14.00;1.00;;;;;;5061888;28;20787;-72
2024/03/09 10:39:04;;;;;;;5.03;4.37;;;14.10;1.00;;;;;;5063096;28;20452;-71
2024/03/09 10:41:29;;;;;;;5.03;4.40;;;14.20;1.00;;;;;;5068353;28;20495;-69
2024/03/09 10:43:56;;;;;;;4.63;3.40;;;14.20;1.00;;;;;;5072488;28;20463;-71
2024/03/09 10:46:22;;;;;;;4.87;4.17;;;14.20;1.00;;;;;;5072674;28;20212;-71
2024/03/09 10:48:51;;;;;;;4.93;4.40;;;14.20;1.00;;;;;;5063835;28;20421;-70
2024/03/09 10:51:54;;;;;;;5.30;4.50;;;14.30;1.00;;;;;;5057051;28;20417;-71
2024/03/09 10:54:38;;;;;;;4.80;4.30;;;14.20;1.00;;;;;;5043744;28;20427;-72
2024/03/09 10:57:10;;;;;;;5.63;3.83;;;14.30;1.00;;;;;;5072573;28;20420;-71
2024/03/09 10:59:38;;;;;;;4.50;4.10;;;14.40;1.00;;;;;;5052702;28;20522;-72
2024/03/09 11:02:07;;;;;;;6.93;4.83;;;14.40;1.00;;;;;;5052398;28;20433;-73
2024/03/09 11:04:34;;;;;;;5.60;4.20;;;14.60;1.00;;;;;;5052221;28;21071;-73
2024/03/09 11:07:01;;;;;;;5.70;4.10;;;14.70;1.00;;;;;;5062970;28;20440;-72
2024/03/09 11:09:30;;;;;;;4.73;3.93;;;14.90;1.00;;;;;;5052112;28;20425;-74
2024/03/09 11:12:01;;;;;;;5.50;4.43;;;14.90;1.00;;;;;;5052744;28;20449;-72
2024/03/09 11:14:26;;;;;;;4.73;4.20;;;14.90;1.00;;;;;;5066048;28;20416;-72
2024/03/09 11:16:53;;;;;;;6.20;4.83;;;15.20;1.00;;;;;;5072078;28;20947;-71
2024/03/09 11:19:20;;;;;;;6.70;4.70;;;15.50;1.00;;;;;;5071813;28;20275;-73
2024/03/09 11:21:48;;;;;;;6.47;5.53;;;15.60;1.00;;;;;;5070678;28;20428;-73
2024/03/09 11:24:15;;;;;;;7.03;4.90;;;15.60;1.00;;;;;;5072366;28;20423;-73
2024/03/09 11:26:50;;;;;;;5.33;4.83;;;15.60;1.00;;;;;;5072039;28;20413;-71
2024/03/09 11:29:17;;;;;;;5.70;4.40;;;15.60;1.00;;;;;;5072254;28;20822;-72
2024/03/09 11:31:43;;;;;;;7.40;5.83;;;15.60;1.00;;;;;;5064083;28;20486;-71
2024/03/09 11:34:38;;;;;;;5.47;5.00;;;15.70;1.00;;;;;;5054523;28;20470;-72
2024/03/09 11:37:08;;;;;;;5.80;5.20;;;15.60;1.00;;;;;;5069948;28;20193;-72
2024/03/09 11:39:37;;;;;;;5.17;4.67;;;15.70;1.00;;;;;;5061149;28;20565;-75
2024/03/09 11:42:12;;;;;;;4.53;4.13;;;15.70;1.00;;;;;;5051938;28;20429;-72
2024/03/09 11:44:39;;;;;;;5.40;4.90;;;15.70;1.00;;;;;;5050838;28;20419;-72
2024/03/09 11:47:07;;;;;;;5.67;4.50;;;15.80;1.00;;;;;;5052343;28;20416;-72
2024/03/09 11:49:35;;;;;;;5.37;4.50;;;15.90;1.00;;;;;;5052396;28;20421;-71
2024/03/09 11:52:07;;;;;;;8.37;4.87;;;15.90;1.00;;;;;;5051037;28;20464;-70
2024/03/09 11:54:33;;;;;;;4.43;3.90;;;15.90;1.00;;;;;;5065010;28;20904;-72
2024/03/09 11:57:00;;;;;;;5.60;4.80;;;15.90;1.00;;;;;;5053533;28;20970;-73
2024/03/09 11:59:26;;;;;;;4.73;4.03;;;16.00;1.00;;;;;;5050795;28;20488;-72
2024/03/09 12:01:59;;;;;;;5.17;4.63;;;16.10;1.00;;;;;;5051798;28;20194;-72
2024/03/09 12:04:26;;;;;;;6.00;4.10;;;16.40;1.00;;;;;;5050299;28;20178;-74
2024/03/09 12:06:54;;;;;;;5.90;4.80;;;16.40;1.00;;;;;;5050854;28;20417;-72
2024/03/09 12:09:20;;;;;;;6.30;4.90;;;16.10;1.00;;;;;;5052740;28;20666;-72
2024/03/09 12:11:48;;;;;;;4.77;4.07;;;16.00;1.00;;;;;;5051562;28;20506;-72
2024/03/09 12:14:15;;;;;;;4.37;3.97;;;15.90;1.00;;;;;;5051864;28;20174;-73
2024/03/09 12:16:42;;;;;;;4.60;4.20;;;15.90;1.00;;;;;;5051839;28;20829;-72
2024/03/09 12:19:08;;;;;;;4.40;4.00;;;16.00;1.00;;;;;;5051642;28;20543;-73
2024/03/09 12:21:37;;;;;;;5.50;4.43;;;16.30;1.00;;;;;;5051382;28;20428;-73
2024/03/09 12:24:03;;;;;;;6.07;4.97;;;16.30;1.00;;;;;;5051680;28;20409;-73
2024/03/09 12:26:29;;;;;;;6.60;5.03;;;16.50;1.00;;;;;;5051399;28;20413;-73
2024/03/09 12:28:59;;;;;;;7.13;5.30;;;16.80;1.00;;;;;;5051446;28;20927;-72
2024/03/09 12:31:28;;;;;;;5.30;4.80;;;16.80;1.00;;;;;;5053161;28;20489;-72
2024/03/09 12:33:54;;;;;;;7.10;5.50;;;16.70;1.00;;;;;;5055510;28;20510;-73
2024/03/09 12:36:21;;;;;;;4.60;4.20;;;16.60;1.00;;;;;;5055251;28;20782;-73
2024/03/09 12:38:47;;;;;;;6.33;5.33;;;16.60;1.00;;;;;;5055375;28;20492;-73
2024/03/09 12:41:29;;;;;;;6.30;5.40;;;16.70;1.00;;;;;;5055354;28;20926;-72
2024/03/09 12:44:03;;;;;;;5.90;5.20;;;16.80;1.00;;;;;;5055674;28;20406;-74
2024/03/09 12:46:32;;;;;;;9.53;5.10;;;16.70;1.00;;;;;;5055248;28;20409;-72
2024/03/09 12:49:00;;;;;;;6.37;4.90;;;16.60;1.00;;;;;;5055283;28;20466;-73